Time;durP1;ratioP1;P1;durP2;ratioP2;P2;SDS_P1;SDS_P2;PMS_P1;PMS_P2;Temp;Humidity;BMP_temperature;BMP_pressure;BME280_temperature;BME280_humidity;BME280_pressure;Samples;Min_cycle;Max_cycle;Signal;HPM_P1;HPM_P2
2022/11/16 00:01:41;;;;;;;14.30;7.80;;;10.60;99.90;;;;;;5049432;28;20313;-81
2022/11/16 00:04:14;;;;;;;220.53;91.20;;;10.60;99.90;;;;;;5050896;28;20263;-81
2022/11/16 00:06:44;;;;;;;26.17;13.30;;;10.60;99.90;;;;;;5049453;28;20430;-82
2022/11/16 00:09:22;;;;;;;8.10;5.23;;;10.60;99.90;;;;;;5032761;28;20494;-82
2022/11/16 00:11:54;;;;;;;7.17;5.37;;;10.60;99.90;;;;;;5051984;28;20551;-82
2022/11/16 00:14:28;;;;;;;8.53;4.40;;;10.50;99.90;;;;;;5034181;28;20947;-81
2022/11/16 00:17:03;;;;;;;8.27;4.70;;;10.50;99.90;;;;;;5051235;28;20417;-82
2022/11/16 00:19:41;;;;;;;6.00;4.60;;;10.50;99.90;;;;;;5049135;28;20858;-81
2022/11/16 00:22:09;;;;;;;8.73;4.80;;;10.40;99.90;;;;;;5033870;28;20438;-82
2022/11/16 00:24:35;;;;;;;7.63;5.40;;;10.40;99.90;;;;;;5049360;28;20455;-82
2022/11/16 00:27:01;;;;;;;8.77;5.80;;;10.40;99.90;;;;;;5049404;28;20426;-82
2022/11/16 00:29:32;;;;;;;6.73;4.97;;;10.40;99.90;;;;;;5032953;28;20187;-82
2022/11/16 00:32:01;;;;;;;4.40;4.00;;;10.30;99.90;;;;;;5033544;28;20280;-82
2022/11/16 00:34:30;;;;;;;5.87;4.57;;;10.30;99.90;;;;;;5032528;28;20868;-82
2022/11/16 00:37:01;;;;;;;7.07;4.60;;;10.20;99.90;;;;;;5048769;28;20429;-82
2022/11/16 00:39:27;;;;;;;4.17;3.77;;;10.10;99.90;;;;;;5032424;28;20504;-82
2022/11/16 00:42:01;;;;;;;7.60;4.20;;;10.00;99.90;;;;;;5031754;28;20919;-81
2022/11/16 00:44:36;;;;;;;5.40;2.83;;;10.00;99.90;;;;;;5048531;28;20208;-82
2022/11/16 00:47:10;;;;;;;3.70;2.80;;;10.10;99.90;;;;;;5033409;28;20464;-82
2022/11/16 00:49:37;;;;;;;3.10;2.33;;;10.10;99.90;;;;;;5050218;28;20927;-82
2022/11/16 00:52:08;;;;;;;2.73;2.53;;;10.20;99.90;;;;;;5031616;28;20855;-82
2022/11/16 00:54:36;;;;;;;4.33;2.07;;;10.20;99.90;;;;;;5032243;28;20461;-82
2022/11/16 00:57:02;;;;;;;3.43;1.80;;;10.20;99.90;;;;;;5047811;28;20416;-81
2022/11/16 00:59:28;;;;;;;1.57;1.40;;;10.20;99.90;;;;;;5031570;28;20794;-82
2022/11/16 01:01:59;;;;;;;8.53;1.47;;;10.30;99.90;;;;;;5048369;28;20673;-81
2022/11/16 01:04:25;;;;;;;3.23;2.30;;;10.30;99.90;;;;;;5032150;28;20292;-82
2022/11/16 01:06:54;;;;;;;2.60;2.27;;;10.30;99.90;;;;;;5031465;28;20526;-83
2022/11/16 01:09:20;;;;;;;4.93;2.73;;;10.10;99.90;;;;;;5042104;28;20208;-82
2022/11/16 01:14:51;;;;;;;2.73;2.50;;;10.00;99.90;;;;;;5048460;28;20708;-82
2022/11/16 01:17:25;;;;;;;3.57;2.40;;;10.00;99.90;;;;;;5048323;28;20455;-82
2022/11/16 01:19:55;;;;;;;2.87;1.90;;;10.10;99.90;;;;;;5049729;28;21003;-82
2022/11/16 01:22:21;;;;;;;3.10;1.60;;;10.10;99.90;;;;;;5047378;28;21090;-82
2022/11/16 01:24:49;;;;;;;2.50;1.80;;;10.10;99.90;;;;;;5030421;28;20580;-82
2022/11/16 01:27:20;;;;;;;2.17;1.93;;;10.20;99.90;;;;;;5031219;28;20190;-81
2022/11/16 01:29:46;;;;;;;2.03;1.40;;;10.20;99.90;;;;;;5047419;28;20424;-82
2022/11/16 01:32:17;;;;;;;3.00;1.13;;;10.20;99.90;;;;;;5030737;28;20431;-82
2022/11/16 01:34:43;;;;;;;1.93;1.10;;;10.20;99.90;;;;;;5047512;28;20208;-81
2022/11/16 01:37:15;;;;;;;2.60;1.30;;;10.20;99.90;;;;;;5029858;28;20449;-81
2022/11/16 01:39:51;;;;;;;4.80;1.00;;;10.10;99.90;;;;;;5046780;28;20222;-81
2022/11/16 01:42:30;;;;;;;1.20;0.80;;;10.20;99.90;;;;;;5047300;28;20449;-82
2022/11/16 01:45:24;;;;;;;4.10;0.70;;;10.30;99.90;;;;;;5046928;28;20977;-81
2022/11/16 01:47:52;;;;;;;1.43;1.30;;;10.40;99.90;;;;;;5031460;28;20618;-82
2022/11/16 01:50:21;;;;;;;1.10;0.83;;;10.50;99.90;;;;;;5030781;28;20433;-84
2022/11/16 01:53:08;;;;;;;1.87;1.10;;;10.60;99.90;;;;;;5047106;28;20426;-83
2022/11/16 01:55:35;;;;;;;1.67;1.07;;;10.70;99.90;;;;;;5047000;28;20558;-82
2022/11/16 01:58:05;;;;;;;1.20;0.80;;;10.70;99.90;;;;;;5046506;28;20466;-82
2022/11/16 02:00:34;;;;;;;1.10;1.00;;;10.60;99.90;;;;;;5031039;28;20471;-82
2022/11/16 02:03:11;;;;;;;2.40;1.10;;;10.50;99.90;;;;;;5030684;28;20423;-82
2022/11/16 02:05:51;;;;;;;1.37;1.00;;;10.50;99.90;;;;;;5030548;28;20483;-82
2022/11/16 02:12:03;;;;;;;2.30;1.30;;;10.30;99.90;;;;;;5048855;28;20424;-82
2022/11/16 02:14:55;;;;;;;1.53;1.13;;;10.20;99.90;;;;;;5036479;28;20517;-81
2022/11/16 02:17:42;;;;;;;0.87;0.80;;;10.20;99.90;;;;;;5046887;28;20429;-82
2022/11/16 02:20:38;;;;;;;0.97;0.80;;;10.20;99.90;;;;;;5046796;28;20561;-81
2022/11/16 02:23:28;;;;;;;1.00;0.70;;;10.20;99.90;;;;;;5048453;28;20901;-82
2022/11/16 02:26:51;;;;;;;2.90;1.30;;;10.20;99.90;;;;;;5046853;28;20558;-82
2022/11/16 02:29:36;;;;;;;2.03;0.90;;;10.30;99.90;;;;;;5048172;28;20504;-81
2022/11/16 02:32:20;;;;;;;1.03;0.93;;;10.20;99.90;;;;;;5047190;28;20963;-82
2022/11/16 02:35:27;;;;;;;1.27;0.93;;;10.20;99.90;;;;;;5046633;28;20467;-81
2022/11/16 02:38:05;;;;;;;1.30;0.70;;;10.20;99.90;;;;;;5034293;28;20431;-81
2022/11/16 02:40:38;;;;;;;1.50;1.20;;;10.20;99.90;;;;;;5030742;28;20493;-82
2022/11/16 02:43:12;;;;;;;2.13;0.60;;;10.20;99.90;;;;;;5046987;28;20421;-82
2022/11/16 02:45:47;;;;;;;1.23;0.80;;;10.20;99.90;;;;;;5048123;28;20437;-82
2022/11/16 02:48:20;;;;;;;2.60;0.70;;;10.30;99.90;;;;;;5047057;28;20938;-82
2022/11/16 02:50:51;;;;;;;1.00;0.70;;;10.40;99.90;;;;;;5052108;28;20426;-81
2022/11/16 02:53:19;;;;;;;1.03;0.77;;;10.40;99.90;;;;;;5052045;28;20430;-81
2022/11/16 02:55:55;;;;;;;1.00;0.90;;;10.40;99.90;;;;;;5050445;28;20462;-82
2022/11/16 02:58:27;;;;;;;0.90;0.80;;;10.40;99.90;;;;;;5050989;28;20424;-81
2022/11/16 03:00:58;;;;;;;1.10;0.80;;;10.40;99.90;;;;;;5050651;28;20540;-81
2022/11/16 03:03:30;;;;;;;3.23;0.87;;;10.40;99.90;;;;;;5050887;28;20434;-82
2022/11/16 03:06:10;;;;;;;0.90;0.70;;;10.40;99.90;;;;;;5050915;28;20445;-81
2022/11/16 03:08:50;;;;;;;1.10;0.77;;;10.40;99.90;;;;;;5051109;28;20428;-81
2022/11/16 03:14:11;;;;;;;0.80;0.80;;;10.50;99.90;;;;;;5051137;28;20869;-81
2022/11/16 03:16:47;;;;;;;0.90;0.63;;;10.50;99.90;;;;;;5034393;28;20434;-82
2022/11/16 03:19:38;;;;;;;0.80;0.77;;;10.50;99.90;;;;;;5050444;28;20433;-82
2022/11/16 03:22:24;;;;;;;2.70;0.80;;;10.40;99.90;;;;;;5050952;28;20805;-82
2022/11/16 03:24:56;;;;;;;2.30;0.80;;;10.40;99.90;;;;;;5051046;28;20447;-81
2022/11/16 03:27:59;;;;;;;2.90;0.70;;;10.40;99.90;;;;;;5050827;28;20452;-82
2022/11/16 03:30:33;;;;;;;2.40;0.70;;;10.40;99.90;;;;;;5050463;28;20468;-82
2022/11/16 03:33:10;;;;;;;0.90;0.60;;;10.50;99.90;;;;;;5049836;28;20516;-82
2022/11/16 03:35:53;;;;;;;0.77;0.60;;;10.50;99.90;;;;;;5049733;28;20446;-82
2022/11/16 03:38:30;;;;;;;0.97;0.70;;;10.50;99.90;;;;;;5051324;28;20418;-81
2022/11/16 03:41:02;;;;;;;0.80;0.70;;;10.50;99.90;;;;;;5033659;28;20475;-81
2022/11/16 03:43:54;;;;;;;0.80;0.63;;;10.60;99.90;;;;;;5049989;28;20422;-82
2022/11/16 03:46:22;;;;;;;0.80;0.60;;;10.60;99.90;;;;;;5051269;28;20427;-81
2022/11/16 03:48:57;;;;;;;1.40;0.83;;;10.60;99.90;;;;;;5050515;28;20421;-81
2022/11/16 03:51:26;;;;;;;0.97;0.60;;;10.60;99.90;;;;;;5034502;28;20424;-81
2022/11/16 03:53:57;;;;;;;1.60;0.63;;;10.60;99.90;;;;;;5050726;28;20519;-82
2022/11/16 03:56:34;;;;;;;0.70;0.50;;;10.60;99.90;;;;;;5049924;28;20430;-81
2022/11/16 03:59:03;;;;;;;1.00;0.83;;;10.60;99.90;;;;;;5049400;28;20807;-81
2022/11/16 04:01:28;;;;;;;1.27;0.93;;;10.60;99.90;;;;;;5048024;28;20473;-81
2022/11/16 04:03:54;;;;;;;0.90;0.67;;;10.60;99.90;;;;;;5032502;28;20428;-82
2022/11/16 04:25:59;;;;;;;1.40;0.90;;;10.70;99.90;;;;;;5050302;28;20471;-82
2022/11/16 04:28:37;;;;;;;1.60;1.00;;;10.70;99.90;;;;;;5032088;28;20472;-81
2022/11/16 04:39:46;;;;;;;1.20;0.90;;;10.90;99.90;;;;;;5043823;28;20440;-81
2022/11/16 04:42:18;;;;;;;0.90;0.73;;;10.90;99.90;;;;;;5032282;28;20459;-81
2022/11/16 04:47:28;;;;;;;2.03;1.50;;;10.90;99.90;;;;;;5049029;28;20420;-81
2022/11/16 04:49:56;;;;;;;1.13;1.03;;;10.90;99.90;;;;;;5048180;28;20437;-81
2022/11/16 04:52:31;;;;;;;1.13;0.93;;;10.90;99.90;;;;;;5048512;28;20197;-80
2022/11/16 04:55:15;;;;;;;3.00;1.00;;;10.90;99.90;;;;;;5031544;28;20488;-80
2022/11/16 04:57:57;;;;;;;5.67;1.00;;;10.80;99.90;;;;;;5033130;28;20429;-80
2022/11/16 05:00:23;;;;;;;0.90;0.80;;;10.80;99.90;;;;;;5048954;28;20560;-81
2022/11/16 05:02:49;;;;;;;1.83;0.90;;;10.80;99.90;;;;;;5029098;28;20428;-82
2022/11/16 05:05:17;;;;;;;1.77;1.10;;;10.90;99.90;;;;;;5031390;28;20487;-81
2022/11/16 05:08:02;;;;;;;4.00;1.63;;;10.80;99.90;;;;;;5048307;28;20229;-81
2022/11/16 05:10:30;;;;;;;4.30;1.23;;;10.80;99.90;;;;;;5048663;28;20987;-81
2022/11/16 05:13:05;;;;;;;4.20;1.60;;;10.80;99.90;;;;;;5031508;28;20486;-81
2022/11/16 05:15:40;;;;;;;5.53;4.17;;;10.80;99.90;;;;;;5048500;28;20448;-81
2022/11/16 05:18:09;;;;;;;6.10;5.03;;;10.80;99.90;;;;;;5048779;28;20429;-81
2022/11/16 05:26:10;;;;;;;40.67;14.80;;;10.70;99.90;;;;;;5047501;28;20929;-79
2022/11/16 05:28:47;;;;;;;2.57;2.10;;;10.70;99.90;;;;;;5030067;28;20514;-81
2022/11/16 05:31:16;;;;;;;2.90;1.93;;;10.60;99.90;;;;;;5043521;28;20188;-81
2022/11/16 05:33:44;;;;;;;2.83;1.93;;;10.70;99.90;;;;;;5046366;28;20425;-79
2022/11/16 05:36:15;;;;;;;2.57;2.10;;;10.70;99.90;;;;;;5029969;28;20949;-84
2022/11/16 05:38:45;;;;;;;4.60;2.33;;;10.60;99.90;;;;;;5030017;28;20440;-80
2022/11/16 05:41:13;;;;;;;2.43;2.07;;;10.60;99.90;;;;;;5029855;28;20476;-79
2022/11/16 05:43:42;;;;;;;2.73;2.30;;;10.60;99.90;;;;;;5029853;28;20466;-79
2022/11/16 05:46:08;;;;;;;3.17;2.17;;;10.60;99.90;;;;;;5029110;28;20431;-82
2022/11/16 05:48:42;;;;;;;1.87;1.67;;;10.60;99.90;;;;;;5029826;28;20842;-81
2022/11/16 05:51:08;;;;;;;2.00;1.83;;;10.60;99.90;;;;;;5047113;28;20198;-81
2022/11/16 05:53:37;;;;;;;2.17;1.80;;;10.60;99.90;;;;;;5048397;28;20426;-81
2022/11/16 05:56:10;;;;;;;3.97;1.50;;;10.70;99.90;;;;;;5030400;28;20208;-81
2022/11/16 05:58:39;;;;;;;1.70;1.60;;;10.70;99.90;;;;;;5045567;28;20936;-80
2022/11/16 06:01:08;;;;;;;3.00;1.87;;;10.70;99.90;;;;;;5045532;28;20510;-80
2022/11/16 06:03:43;;;;;;;1.30;1.20;;;10.70;99.90;;;;;;5028766;28;20421;-81
2022/11/16 06:06:09;;;;;;;2.70;1.77;;;10.70;99.90;;;;;;5047419;28;20670;-80
2022/11/16 06:08:38;;;;;;;1.27;1.17;;;10.70;99.90;;;;;;5028839;28;20599;-80
2022/11/16 06:11:08;;;;;;;2.23;1.43;;;10.70;99.90;;;;;;5045846;28;20234;-81
2022/11/16 06:13:46;;;;;;;1.67;1.10;;;10.70;99.90;;;;;;5047519;28;20418;-81
2022/11/16 06:16:14;;;;;;;1.63;1.10;;;10.70;99.90;;;;;;5031330;28;20967;-80
2022/11/16 06:18:47;;;;;;;1.20;1.10;;;10.70;99.90;;;;;;5047588;28;21225;-81
2022/11/16 06:21:20;;;;;;;2.00;1.00;;;10.70;99.90;;;;;;5046260;28;20816;-81
2022/11/16 06:23:51;;;;;;;1.77;1.00;;;10.70;99.90;;;;;;5045343;28;20495;-80
2022/11/16 06:26:22;;;;;;;1.10;1.03;;;10.70;99.90;;;;;;5045910;28;20428;-81
2022/11/16 06:29:03;;;;;;;1.10;0.80;;;10.70;99.90;;;;;;5046050;28;20411;-81
2022/11/16 06:31:50;;;;;;;1.33;0.80;;;10.70;99.90;;;;;;5046251;28;20436;-81
2022/11/16 06:34:36;;;;;;;0.90;0.80;;;10.70;99.90;;;;;;5028593;28;20588;-81
2022/11/16 06:37:05;;;;;;;0.80;0.60;;;10.70;99.90;;;;;;5045935;28;20803;-81
2022/11/16 06:49:46;;;;;;;3.00;1.63;;;10.70;99.90;;;;;;5049482;28;20403;-81
2022/11/16 06:52:12;;;;;;;0.97;0.90;;;10.70;99.90;;;;;;5031159;28;20430;-81
2022/11/16 06:54:38;;;;;;;1.17;0.83;;;10.70;99.90;;;;;;5046662;28;20442;-85
2022/11/16 06:57:03;;;;;;;1.20;0.73;;;10.60;99.90;;;;;;5030283;28;20423;-81
2022/11/16 06:59:29;;;;;;;4.70;3.30;;;10.70;99.90;;;;;;5030166;28;20193;-81
2022/11/16 07:01:54;;;;;;;15.47;9.20;;;10.80;99.90;;;;;;5029664;28;20541;-80
2022/11/16 07:04:20;;;;;;;2.00;1.80;;;10.80;99.90;;;;;;5029375;28;20206;-80
2022/11/16 07:06:46;;;;;;;1.00;0.80;;;10.70;99.90;;;;;;5028942;28;20185;-84
2022/11/16 07:09:13;;;;;;;1.57;1.27;;;10.80;99.90;;;;;;5045536;28;20261;-84
2022/11/16 07:11:39;;;;;;;2.73;1.00;;;10.80;99.90;;;;;;5028926;28;20336;-81
2022/11/16 07:14:05;;;;;;;5.27;2.00;;;10.80;99.90;;;;;;5028656;28;20536;-81
2022/11/16 07:16:34;;;;;;;116.27;37.67;;;10.80;99.90;;;;;;5045664;28;20498;-81
2022/11/16 07:19:00;;;;;;;9.10;4.03;;;10.80;99.90;;;;;;5047305;28;20874;-83
2022/11/16 07:21:26;;;;;;;1.53;1.43;;;10.90;99.90;;;;;;5029178;28;20475;-81
2022/11/16 07:23:53;;;;;;;39.80;13.00;;;10.80;99.90;;;;;;5047034;28;20434;-81
2022/11/16 07:26:19;;;;;;;3.67;2.00;;;10.80;99.90;;;;;;5028630;28;20446;-82
2022/11/16 07:28:45;;;;;;;5.60;3.07;;;10.80;99.90;;;;;;5045023;28;20441;-82
2022/11/16 07:31:12;;;;;;;7.13;3.40;;;10.80;99.90;;;;;;5028576;28;20186;-82
2022/11/16 07:33:39;;;;;;;1.93;1.83;;;10.80;99.90;;;;;;5030491;28;20935;-82
2022/11/16 07:36:10;;;;;;;1.63;1.50;;;10.80;99.90;;;;;;5030345;28;20940;-82
2022/11/16 07:38:36;;;;;;;3.10;2.20;;;10.80;99.90;;;;;;5048661;28;20443;-81
2022/11/16 07:41:08;;;;;;;15.30;5.90;;;10.80;99.90;;;;;;5048305;28;21013;-81
2022/11/16 07:43:34;;;;;;;2.10;1.90;;;10.80;99.90;;;;;;5048420;28;20459;-82
2022/11/16 07:46:18;;;;;;;2.27;1.90;;;10.80;99.90;;;;;;5031897;28;21041;-81
2022/11/16 07:48:44;;;;;;;4.40;2.63;;;10.90;99.90;;;;;;5048046;28;20761;-81
2022/11/16 07:51:12;;;;;;;2.33;1.90;;;11.00;99.90;;;;;;5047682;28;20737;-81
2022/11/16 07:53:38;;;;;;;1.50;1.40;;;11.00;99.90;;;;;;5048414;28;21042;-82
2022/11/16 07:56:05;;;;;;;2.13;1.93;;;11.20;99.90;;;;;;5048288;28;20475;-81
2022/11/16 07:58:32;;;;;;;4.70;4.30;;;11.20;99.90;;;;;;5048796;28;20520;-80
2022/11/16 08:01:13;;;;;;;2.17;1.97;;;11.30;99.90;;;;;;5048479;28;20473;-80
2022/11/16 08:03:40;;;;;;;2.23;1.83;;;11.40;99.90;;;;;;5048708;28;20457;-82
2022/11/16 08:06:10;;;;;;;6.20;4.23;;;11.30;99.90;;;;;;5048060;28;20859;-81
2022/11/16 08:08:36;;;;;;;1.70;1.60;;;11.30;99.90;;;;;;5048091;28;20934;-82
2022/11/16 08:11:04;;;;;;;2.30;1.90;;;11.30;99.90;;;;;;5031639;28;20466;-81
2022/11/16 08:13:33;;;;;;;1.80;1.67;;;11.10;99.90;;;;;;5049487;28;20185;-82
2022/11/16 08:16:25;;;;;;;3.03;1.80;;;11.10;99.90;;;;;;5047950;28;20562;-82
2022/11/16 08:18:50;;;;;;;1.83;1.73;;;11.00;99.90;;;;;;5031256;28;20441;-82
2022/11/16 08:21:17;;;;;;;32.50;14.10;;;11.10;99.90;;;;;;5048026;28;20465;-81
2022/11/16 08:23:43;;;;;;;2.60;1.77;;;11.10;99.90;;;;;;5031269;28;20186;-81
2022/11/16 08:26:15;;;;;;;2.20;2.00;;;11.10;99.90;;;;;;5048013;28;20433;-81
2022/11/16 08:28:43;;;;;;;2.67;2.00;;;11.10;99.90;;;;;;5048320;28;20467;-81
2022/11/16 08:31:14;;;;;;;1.83;1.57;;;11.10;99.90;;;;;;5048529;28;20457;-82
2022/11/16 08:33:40;;;;;;;2.00;1.17;;;11.10;99.90;;;;;;5047591;28;20432;-82
2022/11/16 08:36:09;;;;;;;1.43;1.00;;;11.10;99.90;;;;;;5030547;28;21002;-83
2022/11/16 08:38:34;;;;;;;1.50;1.33;;;11.20;99.90;;;;;;5047385;28;20434;-81
2022/11/16 08:41:00;;;;;;;1.93;1.13;;;11.30;99.90;;;;;;5047300;28;20479;-81
2022/11/16 08:43:28;;;;;;;1.73;1.53;;;11.40;99.90;;;;;;5047318;28;20194;-81
2022/11/16 08:45:54;;;;;;;2.70;0.90;;;11.40;99.90;;;;;;5030586;28;20444;-81
2022/11/16 08:48:20;;;;;;;0.80;0.60;;;11.40;99.90;;;;;;5030901;28;20882;-81
2022/11/16 08:50:46;;;;;;;1.60;0.90;;;11.50;99.90;;;;;;5048149;28;20836;-81
2022/11/16 08:53:14;;;;;;;1.87;1.03;;;11.60;99.90;;;;;;5047502;28;20195;-81
2022/11/16 08:55:41;;;;;;;1.10;0.87;;;11.60;99.90;;;;;;5031490;28;20455;-81
2022/11/16 08:58:07;;;;;;;1.43;1.33;;;11.60;99.90;;;;;;5048129;28;20462;-81
2022/11/16 09:00:33;;;;;;;1.60;1.50;;;11.60;99.90;;;;;;5049050;28;20542;-81
2022/11/16 09:02:59;;;;;;;6.30;1.20;;;11.80;99.90;;;;;;5047246;28;20444;-81
2022/11/16 09:05:25;;;;;;;1.57;1.47;;;11.60;99.90;;;;;;5030313;28;20968;-81
2022/11/16 09:07:50;;;;;;;3.27;1.80;;;11.70;99.90;;;;;;5030368;28;20665;-81
2022/11/16 09:10:21;;;;;;;2.20;1.20;;;11.70;99.90;;;;;;5046779;28;20571;-83
2022/11/16 09:12:47;;;;;;;2.40;2.10;;;11.50;99.90;;;;;;5030986;28;20209;-81
2022/11/16 09:15:13;;;;;;;2.63;1.33;;;11.70;99.90;;;;;;5030258;28;20452;-81
2022/11/16 09:17:39;;;;;;;2.50;1.40;;;12.20;99.90;;;;;;5030757;28;20952;-81
2022/11/16 09:20:05;;;;;;;1.13;1.03;;;13.00;99.90;;;;;;5030931;28;20209;-81
2022/11/16 09:22:30;;;;;;;2.90;0.90;;;15.20;99.90;;;;;;5047255;28;20180;-81
2022/11/16 09:24:56;;;;;;;2.63;1.30;;;17.30;99.90;;;;;;5029975;28;20503;-81
2022/11/16 09:27:22;;;;;;;1.53;0.87;;;18.80;99.90;;;;;;5030115;28;20184;-81
2022/11/16 09:29:47;;;;;;;2.80;1.30;;;18.40;99.90;;;;;;5047031;28;20188;-81
2022/11/16 09:32:13;;;;;;;4.43;1.80;;;18.20;99.90;;;;;;5030053;28;20191;-81
2022/11/16 09:34:39;;;;;;;4.70;2.73;;;17.50;99.90;;;;;;5046442;28;20227;-81
2022/11/16 09:37:04;;;;;;;1.50;1.23;;;16.90;99.90;;;;;;5029648;28;20197;-81
2022/11/16 09:39:31;;;;;;;1.60;1.37;;;15.90;99.90;;;;;;5046125;28;20183;-81
2022/11/16 09:42:12;;;;;;;2.33;1.40;;;15.40;99.90;;;;;;5029403;28;20225;-81
2022/11/16 09:45:04;;;;;;;205.67;108.60;;;15.10;99.90;;;;;;5046133;28;20560;-80
2022/11/16 09:47:48;;;;;;;16.30;8.40;;;14.70;99.90;;;;;;5044663;28;20432;-81
2022/11/16 09:50:55;;;;;;;2.80;1.83;;;14.30;99.90;;;;;;5045732;28;20459;-81
2022/11/16 09:53:54;;;;;;;2.90;1.20;;;13.90;99.90;;;;;;5044992;28;20430;-80
2022/11/16 09:56:24;;;;;;;1.90;1.07;;;13.60;99.90;;;;;;5028942;28;20516;-80
2022/11/16 09:59:01;;;;;;;4.77;1.07;;;13.50;99.90;;;;;;5028783;28;20434;-80
2022/11/16 10:01:48;;;;;;;2.70;1.10;;;13.40;99.90;;;;;;5045562;28;20846;-80
2022/11/16 10:04:35;;;;;;;14.10;4.47;;;13.20;99.90;;;;;;5045558;28;20782;-80
2022/11/16 10:07:18;;;;;;;1.73;0.83;;;13.10;99.90;;;;;;5045828;28;20429;-80
2022/11/16 10:09:45;;;;;;;3.37;1.93;;;13.00;99.90;;;;;;5045837;28;20532;-80
2022/11/16 10:12:29;;;;;;;4.53;1.47;;;12.90;99.90;;;;;;5029415;28;20426;-79
2022/11/16 10:15:29;;;;;;;1.33;1.00;;;12.80;99.90;;;;;;5047991;28;20472;-80
2022/11/16 10:18:15;;;;;;;21.90;10.43;;;12.90;99.90;;;;;;5047238;28;20422;-80
2022/11/16 10:20:58;;;;;;;42.70;21.20;;;14.50;99.90;;;;;;5047352;28;20470;-80
2022/11/16 10:23:42;;;;;;;5.50;2.53;;;14.80;99.90;;;;;;5045946;28;20426;-79
2022/11/16 10:26:23;;;;;;;3.60;1.60;;;15.80;99.90;;;;;;5045480;28;20544;-79
2022/11/16 10:29:16;;;;;;;6.77;4.17;;;17.70;99.90;;;;;;5046658;28;20441;-79
2022/11/16 10:31:44;;;;;;;6.60;2.90;;;19.10;99.90;;;;;;5045924;28;20895;-80
2022/11/16 10:34:18;;;;;;;9.63;4.20;;;19.30;95.20;;;;;;5044793;28;20450;-79
2022/11/16 10:36:44;;;;;;;33.03;15.77;;;19.80;97.70;;;;;;5045096;28;20623;-80
2022/11/16 10:39:13;;;;;;;41.63;19.90;;;19.70;98.70;;;;;;5045228;28;20431;-82
2022/11/16 10:41:43;;;;;;;11.13;3.50;;;19.40;96.30;;;;;;5046457;28;20602;-81
2022/11/16 10:44:23;;;;;;;2.73;1.70;;;18.70;97.50;;;;;;5045084;28;20459;-81
2022/11/16 10:47:01;;;;;;;110.80;35.40;;;17.90;99.30;;;;;;5044722;28;20431;-80
2022/11/16 10:49:35;;;;;;;65.57;22.87;;;17.30;99.90;;;;;;5046287;28;21127;-80
2022/11/16 10:52:01;;;;;;;133.87;51.40;;;16.70;99.90;;;;;;5045042;28;20871;-81
2022/11/16 10:54:26;;;;;;;9.90;4.07;;;16.30;99.90;;;;;;5028682;28;20832;-80
2022/11/16 10:57:03;;;;;;;2.50;1.00;;;15.90;99.90;;;;;;5045441;28;20427;-80
2022/11/16 10:59:54;;;;;;;4.80;1.00;;;15.30;99.90;;;;;;5028432;28;21185;-80
2022/11/16 11:02:32;;;;;;;3.00;0.90;;;14.90;99.90;;;;;;5047253;28;20430;-80
2022/11/16 11:05:12;;;;;;;2.60;1.30;;;14.60;99.90;;;;;;5044908;28;20477;-80
2022/11/16 11:07:39;;;;;;;1.23;0.60;;;14.40;99.90;;;;;;5044994;28;20459;-80
2022/11/16 11:10:21;;;;;;;2.83;0.80;;;14.20;99.90;;;;;;5046754;28;20439;-80
2022/11/16 11:13:09;;;;;;;1.87;0.70;;;14.20;99.90;;;;;;5050059;28;20414;-80
2022/11/16 11:15:36;;;;;;;2.83;0.90;;;14.20;99.90;;;;;;5049773;28;20446;-80
2022/11/16 11:18:14;;;;;;;4.60;1.03;;;14.10;99.90;;;;;;5032017;28;20422;-80
2022/11/16 11:20:42;;;;;;;220.13;94.47;;;14.20;99.90;;;;;;5048357;28;20929;-80
2022/11/16 11:23:18;;;;;;;12.90;6.53;;;14.30;99.90;;;;;;5032119;28;20433;-80
2022/11/16 11:25:59;;;;;;;2.47;0.70;;;14.40;99.90;;;;;;5031774;28;20460;-80
2022/11/16 11:28:52;;;;;;;107.30;52.23;;;14.20;99.90;;;;;;5048352;28;20521;-80
2022/11/16 11:31:40;;;;;;;27.67;15.43;;;14.60;99.90;;;;;;5047116;28;20449;-81
2022/11/16 11:34:08;;;;;;;58.87;34.10;;;15.00;99.90;;;;;;5048612;28;20557;-80
2022/11/16 11:36:51;;;;;;;36.80;14.90;;;15.10;99.90;;;;;;5048644;28;20429;-80
2022/11/16 11:39:20;;;;;;;53.13;29.87;;;15.00;99.90;;;;;;5050469;28;20418;-80
2022/11/16 11:42:02;;;;;;;13.90;7.97;;;15.20;99.90;;;;;;5050597;28;20516;-80
2022/11/16 11:44:59;;;;;;;60.07;27.20;;;15.60;99.90;;;;;;5048390;28;20467;-81
2022/11/16 11:47:49;;;;;;;15.80;8.00;;;15.60;99.90;;;;;;5048316;28;20480;-81
2022/11/16 11:50:37;;;;;;;5.80;3.40;;;15.40;99.90;;;;;;5048082;28;20476;-79
2022/11/16 11:53:13;;;;;;;31.17;17.67;;;15.00;99.90;;;;;;5049648;28;20415;-80
2022/11/16 11:55:39;;;;;;;37.97;19.50;;;14.80;99.90;;;;;;5047801;28;20467;-80
2022/11/16 11:58:12;;;;;;;4.93;1.77;;;14.40;99.90;;;;;;5031198;28;20427;-80
2022/11/16 12:01:03;;;;;;;11.30;6.00;;;14.40;99.90;;;;;;5032285;28;20250;-80
2022/11/16 12:03:38;;;;;;;1.60;1.13;;;14.20;99.90;;;;;;5048221;28;20426;-81
2022/11/16 12:06:06;;;;;;;11.50;6.77;;;14.10;99.90;;;;;;5047816;28;20776;-80
2022/11/16 12:09:01;;;;;;;5.77;2.03;;;13.90;99.90;;;;;;5048008;28;20422;-82
2022/11/16 12:11:51;;;;;;;1.87;1.00;;;13.70;99.90;;;;;;5048013;28;20984;-81
2022/11/16 12:14:27;;;;;;;5.97;0.80;;;13.50;99.90;;;;;;5049962;28;20434;-81
2022/11/16 12:17:22;;;;;;;1.80;0.90;;;13.30;99.90;;;;;;5049706;28;20944;-81
2022/11/16 12:19:58;;;;;;;1.90;0.73;;;13.20;99.90;;;;;;5038864;28;20800;-80
2022/11/16 12:23:01;;;;;;;2.60;0.70;;;13.20;99.90;;;;;;5047086;28;20433;-83
2022/11/16 12:25:39;;;;;;;2.00;0.67;;;13.00;99.90;;;;;;5036316;28;21054;-81
2022/11/16 12:28:33;;;;;;;2.93;1.00;;;12.90;99.90;;;;;;5047473;28;20437;-83
2022/11/16 12:31:26;;;;;;;4.77;0.87;;;12.90;99.90;;;;;;5047604;28;20450;-83
2022/11/16 12:34:00;;;;;;;4.07;0.80;;;12.70;99.90;;;;;;5048516;28;20427;-81
2022/11/16 12:36:51;;;;;;;2.23;0.60;;;12.60;99.90;;;;;;5047027;28;20421;-80
2022/11/16 12:39:47;;;;;;;1.13;0.70;;;12.60;99.90;;;;;;5047826;28;20436;-82
2022/11/16 12:42:32;;;;;;;17.87;7.17;;;12.60;99.90;;;;;;5046481;28;20477;-81
2022/11/16 12:45:30;;;;;;;6.67;0.90;;;12.90;99.90;;;;;;5047010;28;20465;-81
2022/11/16 12:48:26;;;;;;;3.47;0.70;;;13.00;99.90;;;;;;5047886;28;20948;-80
2022/11/16 12:51:18;;;;;;;2.07;0.63;;;13.00;99.90;;;;;;5047079;28;20423;-81
2022/11/16 12:54:11;;;;;;;0.73;0.40;;;12.90;99.90;;;;;;5047009;28;20418;-80
2022/11/16 12:57:00;;;;;;;5.10;0.70;;;12.80;99.90;;;;;;5047087;28;20461;-80
2022/11/16 13:00:07;;;;;;;3.37;0.87;;;12.80;99.90;;;;;;5036865;28;20424;-82
2022/11/16 13:03:11;;;;;;;3.10;1.40;;;12.70;99.90;;;;;;5046769;28;20471;-80
2022/11/16 13:05:57;;;;;;;2.80;0.70;;;12.70;99.90;;;;;;5046416;28;20476;-80
2022/11/16 13:09:00;;;;;;;1.67;0.70;;;12.60;99.90;;;;;;5048087;28;20409;-80
2022/11/16 13:11:36;;;;;;;1.67;0.77;;;12.50;99.90;;;;;;5047150;28;20451;-80
2022/11/16 13:14:15;;;;;;;4.73;2.07;;;12.50;99.90;;;;;;5030565;28;20445;-80
2022/11/16 13:16:42;;;;;;;3.43;1.07;;;12.50;99.90;;;;;;5047537;28;20525;-80
2022/11/16 13:19:11;;;;;;;102.63;41.67;;;12.50;99.90;;;;;;5032100;28;20421;-80
2022/11/16 13:21:52;;;;;;;11.03;5.60;;;12.50;99.90;;;;;;5031736;28;20480;-81
2022/11/16 13:24:37;;;;;;;3.17;1.13;;;12.50;99.90;;;;;;5047730;28;20446;-80
2022/11/16 13:27:11;;;;;;;20.33;7.90;;;12.50;99.90;;;;;;5046797;28;20734;-81
2022/11/16 13:29:56;;;;;;;3.47;1.10;;;12.40;99.90;;;;;;5046790;28;20436;-80
2022/11/16 13:32:30;;;;;;;4.83;0.80;;;12.40;99.90;;;;;;5048355;28;20440;-81
2022/11/16 13:34:58;;;;;;;4.43;1.07;;;12.30;99.90;;;;;;5046450;28;20451;-80
2022/11/16 13:37:36;;;;;;;4.30;0.80;;;12.30;99.90;;;;;;5029977;28;20516;-80
2022/11/16 13:40:05;;;;;;;429.70;159.50;;;12.30;99.90;;;;;;5046641;28;20995;-80
2022/11/16 13:42:37;;;;;;;186.00;62.20;;;12.30;99.90;;;;;;5046980;28;20524;-80
2022/11/16 13:45:20;;;;;;;7.50;2.73;;;12.30;99.90;;;;;;5049045;28;20437;-80
2022/11/16 13:47:54;;;;;;;8.90;1.20;;;12.30;99.90;;;;;;5046841;28;20433;-80
2022/11/16 13:50:23;;;;;;;3.40;0.93;;;12.40;99.90;;;;;;5047691;28;20873;-80
2022/11/16 13:52:55;;;;;;;26.80;9.87;;;12.40;99.90;;;;;;5029503;28;20436;-80
2022/11/16 13:55:34;;;;;;;4.10;1.10;;;12.50;99.90;;;;;;5045690;28;20458;-80
2022/11/16 13:58:02;;;;;;;14.63;3.30;;;12.60;99.90;;;;;;5045572;28;20482;-80
2022/11/16 14:00:37;;;;;;;6.30;2.03;;;12.60;99.90;;;;;;5028564;28;20470;-80
2022/11/16 14:03:14;;;;;;;4.43;1.00;;;12.70;99.90;;;;;;5045562;28;20980;-80
2022/11/16 14:05:48;;;;;;;2.93;1.00;;;12.70;99.90;;;;;;5045488;28;20972;-81
2022/11/16 14:08:26;;;;;;;163.73;45.43;;;12.70;99.90;;;;;;5028814;28;20440;-80
2022/11/16 14:10:51;;;;;;;3.87;2.20;;;12.80;99.90;;;;;;5047253;28;20443;-80
2022/11/16 14:13:43;;;;;;;6.00;1.80;;;12.80;99.90;;;;;;5047237;28;20426;-80
2022/11/16 14:16:20;;;;;;;9.40;2.47;;;12.70;99.90;;;;;;5029215;28;20251;-80
2022/11/16 14:18:49;;;;;;;23.23;6.87;;;12.70;99.90;;;;;;5045573;28;20464;-80